createdAt,value
2018-07-10T00:02:38.869Z,8.00
2018-07-10T00:06:24.128Z,7.70
2018-07-10T00:11:40.299Z,7.57
2018-07-10T00:14:09.089Z,7.27
2018-07-10T00:16:37.937Z,7.50
2018-07-10T00:19:06.894Z,7.30
2018-07-10T00:21:35.646Z,7.17
2018-07-10T00:24:05.475Z,7.03
2018-07-10T00:26:34.710Z,6.70
2018-07-10T00:29:03.450Z,6.97
2018-07-10T00:31:32.274Z,7.27
2018-07-10T00:34:01.035Z,8.57
2018-07-10T00:36:29.860Z,7.63
2018-07-10T00:39:07.360Z,7.83
2018-07-10T00:41:38.491Z,8.67
2018-07-10T00:44:08.001Z,7.57
2018-07-10T00:46:38.471Z,7.47
2018-07-10T00:49:07.303Z,8.53
2018-07-10T00:51:39.385Z,7.10
2018-07-10T00:54:08.379Z,6.60
2018-07-10T00:56:37.267Z,7.23
2018-07-10T00:59:06.907Z,6.40
2018-07-10T01:01:35.969Z,6.40
2018-07-10T01:04:04.822Z,6.50
2018-07-10T01:06:34.081Z,5.60
2018-07-10T01:09:03.150Z,5.67
2018-07-10T01:11:32.790Z,4.70
2018-07-10T01:14:01.774Z,5.17
2018-07-10T01:16:39.261Z,6.97
2018-07-10T01:19:14.325Z,5.37
2018-07-10T01:21:43.784Z,5.80
2018-07-10T01:24:12.707Z,5.50
2018-07-10T01:26:42.369Z,6.80
2018-07-10T01:29:21.585Z,5.20
2018-07-10T01:31:52.573Z,7.13
2018-07-10T01:34:21.849Z,5.50
2018-07-10T01:36:51.077Z,5.70
2018-07-10T01:39:19.926Z,5.17
2018-07-10T01:41:48.962Z,5.20
2018-07-10T01:44:17.833Z,5.53
2018-07-10T01:46:46.592Z,6.00
2018-07-10T01:49:15.486Z,5.50
2018-07-10T01:51:44.420Z,8.13
2018-07-10T01:54:13.394Z,7.07
2018-07-10T01:56:42.219Z,7.00
2018-07-10T01:59:11.245Z,6.90
2018-07-10T02:01:40.087Z,7.93
2018-07-10T02:04:09.128Z,8.33
2018-07-10T02:06:38.494Z,8.50
2018-07-10T02:09:07.435Z,7.97
2018-07-10T02:11:36.298Z,8.27
2018-07-10T02:14:05.167Z,8.70
2018-07-10T02:16:34.178Z,10.07
2018-07-10T02:19:03.602Z,9.73
2018-07-10T02:21:32.478Z,8.73
2018-07-10T02:24:01.378Z,8.97
2018-07-10T02:26:30.286Z,7.77
2018-07-10T02:28:59.182Z,7.67
2018-07-10T02:31:28.049Z,6.70
2018-07-10T02:33:56.922Z,7.30
2018-07-10T02:36:25.892Z,5.70
2018-07-10T02:38:59.574Z,7.47
2018-07-10T02:41:28.466Z,5.93
2018-07-10T02:44:03.844Z,6.57
2018-07-10T02:46:34.371Z,6.00
2018-07-10T02:49:10.180Z,7.43
2018-07-10T02:51:42.715Z,5.73
2018-07-10T02:54:11.951Z,6.17
2018-07-10T02:56:41.961Z,7.50
2018-07-10T02:59:11.136Z,7.77
2018-07-10T03:01:40.111Z,5.80
2018-07-10T03:04:09.035Z,5.90
2018-07-10T03:06:37.939Z,7.80
2018-07-10T03:09:06.938Z,10.23
2018-07-10T03:11:37.127Z,9.10
2018-07-10T03:14:08.616Z,8.20
2018-07-10T03:16:37.783Z,6.23
2018-07-10T03:19:08.011Z,7.87
2018-07-10T03:21:36.798Z,6.87
2018-07-10T03:24:05.678Z,6.93
2018-07-10T03:26:34.520Z,6.77
2018-07-10T03:29:03.649Z,7.60
2018-07-10T03:31:32.566Z,7.77
2018-07-10T03:34:01.395Z,6.73
2018-07-10T03:36:30.274Z,6.77
2018-07-10T03:38:59.361Z,7.83
2018-07-10T03:41:28.754Z,7.47
2018-07-10T03:43:57.719Z,7.80
2018-07-10T03:46:26.631Z,7.90
2018-07-10T03:48:56.366Z,7.20
2018-07-10T03:51:26.265Z,7.83
2018-07-10T03:53:55.479Z,7.80
2018-07-10T03:56:24.479Z,7.43
2018-07-10T03:58:55.758Z,8.80
2018-07-10T04:01:26.271Z,10.73
2018-07-10T04:03:55.377Z,11.77
2018-07-10T04:06:24.353Z,12.60
2018-07-10T04:08:53.281Z,11.93
2018-07-10T04:11:22.387Z,10.93
2018-07-10T04:13:51.425Z,12.20
2018-07-10T04:16:20.542Z,13.87
2018-07-10T04:18:49.427Z,13.80
2018-07-10T04:21:22.429Z,14.03
2018-07-10T04:23:57.057Z,13.87
2018-07-10T04:26:26.051Z,13.63
2018-07-10T04:29:29.408Z,13.70
2018-07-10T04:32:00.088Z,14.50
2018-07-10T04:34:30.367Z,13.93
2018-07-10T04:37:16.024Z,14.20
2018-07-10T04:39:45.477Z,15.13
2018-07-10T04:42:30.995Z,16.23
2018-07-10T04:45:15.022Z,16.37
2018-07-10T04:47:50.603Z,15.60
2018-07-10T04:50:26.126Z,14.57
2018-07-10T04:53:02.222Z,14.57
2018-07-10T04:55:32.794Z,13.00
2018-07-10T04:58:12.080Z,15.37
2018-07-10T05:00:46.728Z,13.03
2018-07-10T05:03:17.552Z,12.67
2018-07-10T05:05:47.026Z,14.30
2018-07-10T05:08:18.720Z,15.07
2018-07-10T05:10:48.507Z,14.97
2018-07-10T05:13:17.750Z,16.17
2018-07-10T05:15:50.206Z,16.43
2018-07-10T05:18:19.173Z,18.57
2018-07-10T05:20:48.043Z,14.63
2018-07-10T05:23:18.412Z,16.50
2018-07-10T05:25:53.896Z,16.73
2018-07-10T05:28:22.801Z,15.83
2018-07-10T05:30:51.820Z,15.03
2018-07-10T05:33:22.962Z,16.97
2018-07-10T05:35:52.094Z,14.67
2018-07-10T05:38:30.946Z,15.13
2018-07-10T05:41:00.627Z,15.60
2018-07-10T05:43:29.565Z,14.30
2018-07-10T05:45:58.443Z,13.43
2018-07-10T05:48:28.745Z,13.57
2018-07-10T05:50:58.114Z,14.40
2018-07-10T05:53:27.025Z,16.40
2018-07-10T05:55:55.917Z,14.00
2018-07-10T05:58:24.730Z,14.07
2018-07-10T06:00:53.673Z,13.57
2018-07-10T06:03:22.552Z,16.10
2018-07-10T06:05:51.453Z,12.67
2018-07-10T06:08:20.237Z,14.37
2018-07-10T06:10:49.192Z,14.67
2018-07-10T06:13:18.157Z,16.37
2018-07-10T06:15:47.049Z,17.03
2018-07-10T06:18:15.918Z,16.30
2018-07-10T06:20:44.849Z,18.50
2018-07-10T06:23:13.803Z,17.10
2018-07-10T06:25:42.750Z,19.53
2018-07-10T06:28:16.689Z,16.73
2018-07-10T06:30:45.589Z,17.07
2018-07-10T06:33:23.931Z,18.13
2018-07-10T06:36:05.005Z,18.67
2018-07-10T06:38:33.906Z,15.47
2018-07-10T06:41:03.030Z,16.67
2018-07-10T06:43:44.063Z,15.13
2018-07-10T06:46:12.998Z,13.00
2018-07-10T06:48:44.787Z,12.47
2018-07-10T06:51:19.098Z,12.67
2018-07-10T06:53:49.801Z,15.87
2018-07-10T06:56:26.143Z,10.83
2018-07-10T06:58:55.326Z,9.23
2018-07-10T07:01:25.025Z,11.53
2018-07-10T07:04:00.116Z,10.90
2018-07-10T07:06:29.441Z,13.43
2018-07-10T07:08:58.338Z,10.63
2018-07-10T07:11:27.335Z,13.07
2018-07-10T07:13:56.270Z,13.80
2018-07-10T07:16:25.203Z,14.90
2018-07-10T07:18:54.125Z,13.83
2018-07-10T07:21:22.942Z,15.27
2018-07-10T07:23:51.978Z,16.80
2018-07-10T07:26:21.210Z,15.50
2018-07-10T07:28:50.052Z,14.33
2018-07-10T07:31:19.194Z,16.63
2018-07-10T07:33:48.050Z,15.93
2018-07-10T07:36:16.937Z,17.13
2018-07-10T07:38:45.831Z,15.90
2018-07-10T07:41:14.863Z,18.17
2018-07-10T07:43:43.887Z,15.03
2018-07-10T07:46:13.271Z,15.60
2018-07-10T07:48:42.125Z,17.50
2018-07-10T07:51:11.035Z,14.77
2018-07-10T07:53:39.906Z,17.73
2018-07-10T07:56:08.824Z,14.43
2018-07-10T07:58:37.728Z,13.90
2018-07-10T08:01:06.572Z,15.77
2018-07-10T08:03:36.343Z,16.43
2018-07-10T08:06:05.697Z,15.40
2018-07-10T08:08:34.663Z,15.90
2018-07-10T08:11:03.729Z,14.87
2018-07-10T08:13:32.736Z,15.20
2018-07-10T08:16:01.729Z,14.33
2018-07-10T08:18:30.798Z,15.87
2018-07-10T08:20:59.997Z,17.43
2018-07-10T08:23:28.931Z,17.30
2018-07-10T08:25:58.886Z,18.30
2018-07-10T08:28:27.838Z,17.57
2018-07-10T08:30:56.772Z,17.63
2018-07-10T08:33:25.763Z,17.90
2018-07-10T08:35:54.857Z,18.83
2018-07-10T08:38:32.445Z,19.10
2018-07-10T08:41:01.428Z,17.60
2018-07-10T08:43:31.142Z,17.73
2018-07-10T08:46:00.334Z,17.07
2018-07-10T08:48:29.302Z,17.23
2018-07-10T08:50:59.404Z,15.77
2018-07-10T08:53:29.024Z,17.47
2018-07-10T08:55:58.014Z,16.57
2018-07-10T08:58:26.998Z,19.50
2018-07-10T09:00:55.970Z,16.70
2018-07-10T09:03:25.100Z,16.53
2018-07-10T09:05:53.982Z,16.73
2018-07-10T09:08:22.958Z,15.37
2018-07-10T09:10:51.891Z,16.43
2018-07-10T09:13:20.878Z,17.20
2018-07-10T09:15:49.806Z,18.17
2018-07-10T09:18:18.726Z,17.93
2018-07-10T09:20:50.375Z,19.67
2018-07-10T09:23:20.756Z,21.70
2018-07-10T09:25:58.068Z,15.43
2018-07-10T09:28:28.858Z,19.23
2018-07-10T09:30:57.856Z,17.73
2018-07-10T09:33:26.773Z,18.60
2018-07-10T09:35:56.144Z,16.27
2018-07-10T09:38:25.114Z,14.93
2018-07-10T09:40:54.770Z,14.23
2018-07-10T09:43:25.246Z,15.57
2018-07-10T09:45:54.198Z,13.47
2018-07-10T09:48:23.240Z,15.23
2018-07-10T09:50:52.425Z,14.77
2018-07-10T09:53:21.791Z,14.60
2018-07-10T09:55:50.733Z,12.50
2018-07-10T09:58:21.823Z,12.13
2018-07-10T10:00:57.795Z,12.20
2018-07-10T10:03:26.746Z,12.90
2018-07-10T10:05:56.503Z,12.70
2018-07-10T10:08:25.363Z,9.80
2018-07-10T10:10:54.279Z,10.07
2018-07-10T10:13:23.245Z,10.67
2018-07-10T10:15:52.554Z,11.53
2018-07-10T10:18:22.670Z,11.30
2018-07-10T10:20:52.097Z,15.17
2018-07-10T10:23:28.417Z,14.43
2018-07-10T10:25:57.460Z,16.83
2018-07-10T10:28:26.902Z,16.23
2018-07-10T10:30:56.004Z,17.80
2018-07-10T10:33:25.096Z,16.10
2018-07-10T10:35:54.462Z,15.97
2018-07-10T10:38:24.530Z,17.57
2018-07-10T10:40:54.835Z,18.07
2018-07-10T10:43:30.663Z,17.40
2018-07-10T10:45:59.572Z,15.37
2018-07-10T10:48:28.572Z,17.43
2018-07-10T10:50:57.473Z,17.27
2018-07-10T10:53:27.082Z,16.47
2018-07-10T10:55:55.980Z,17.03
2018-07-10T10:58:25.000Z,17.03
2018-07-10T11:00:54.236Z,18.10
2018-07-10T11:03:23.231Z,17.00
2018-07-10T11:05:52.600Z,17.57
2018-07-10T11:08:23.071Z,16.60
2018-07-10T11:10:52.255Z,16.60
2018-07-10T11:13:21.230Z,15.47
2018-07-10T11:15:50.745Z,15.27
2018-07-10T11:18:32.660Z,15.70
2018-07-10T11:21:05.852Z,15.93
2018-07-10T11:23:41.559Z,14.67
2018-07-10T11:26:12.789Z,16.10
2018-07-10T11:28:41.711Z,14.80
2018-07-10T11:31:10.948Z,16.53
2018-07-10T11:33:39.889Z,15.23
2018-07-10T11:36:08.857Z,15.20
2018-07-10T11:38:37.779Z,14.50
2018-07-10T11:41:06.799Z,14.37
2018-07-10T11:43:35.795Z,15.80
2018-07-10T11:46:04.796Z,14.70
2018-07-10T11:48:33.817Z,16.33
2018-07-10T11:51:02.746Z,15.40
2018-07-10T11:53:31.637Z,16.80
2018-07-10T11:56:00.626Z,17.03
2018-07-10T11:58:29.567Z,17.57
2018-07-10T12:00:57.951Z,17.80
2018-07-10T12:03:27.214Z,15.77
2018-07-10T12:05:56.245Z,16.90
2018-07-10T12:08:25.153Z,16.07
2018-07-10T12:11:31.875Z,14.90
2018-07-10T12:14:04.711Z,15.17
2018-07-10T12:16:34.193Z,14.80
2018-07-10T12:19:03.474Z,16.30
2018-07-10T12:21:32.398Z,15.93
2018-07-10T12:24:01.386Z,16.67
2018-07-10T12:26:30.331Z,16.00
2018-07-10T12:28:59.299Z,16.97
2018-07-10T12:31:28.597Z,16.17
2018-07-10T12:33:57.525Z,16.50
2018-07-10T12:36:26.468Z,14.60
2018-07-10T12:38:55.377Z,14.17
2018-07-10T12:41:24.302Z,13.10
2018-07-10T12:43:53.181Z,12.57
2018-07-10T12:46:22.038Z,13.73
2018-07-10T12:48:50.889Z,10.30
2018-07-10T12:51:19.738Z,10.80
2018-07-10T12:53:48.630Z,11.77
2018-07-10T12:56:18.478Z,9.83
2018-07-10T12:58:47.599Z,10.20
2018-07-10T13:01:17.635Z,11.10
2018-07-10T13:03:47.155Z,11.17
2018-07-10T13:06:16.018Z,11.37
2018-07-10T13:08:44.919Z,11.40
2018-07-10T13:11:14.143Z,11.67
2018-07-10T13:13:43.037Z,11.33
2018-07-10T13:16:11.989Z,11.57
2018-07-10T13:18:42.070Z,11.67
2018-07-10T13:21:11.035Z,12.50
2018-07-10T13:23:40.265Z,14.37
2018-07-10T13:26:09.235Z,12.10
2018-07-10T13:28:38.837Z,11.97
2018-07-10T13:31:07.719Z,10.67
2018-07-10T13:33:36.599Z,11.27
2018-07-10T13:36:05.832Z,11.40
2018-07-10T13:38:35.039Z,11.43
2018-07-10T13:41:03.921Z,10.17
2018-07-10T13:43:32.806Z,10.63
2018-07-10T13:46:02.137Z,11.50
2018-07-10T13:48:31.044Z,10.47
2018-07-10T13:50:59.964Z,10.47
2018-07-10T13:53:28.804Z,10.33
2018-07-10T13:55:57.689Z,9.63
2018-07-10T13:58:29.227Z,10.17
2018-07-10T14:01:08.890Z,10.83
2018-07-10T14:03:38.042Z,9.83
2018-07-10T14:06:07.226Z,9.40
2018-07-10T14:08:36.211Z,9.13
2018-07-10T14:11:05.144Z,8.27
2018-07-10T14:13:34.115Z,8.33
2018-07-10T14:16:03.283Z,9.43
2018-07-10T14:18:32.236Z,9.80
2018-07-10T14:21:06.991Z,9.70
2018-07-10T14:23:36.255Z,9.23
2018-07-10T14:26:05.897Z,10.90
2018-07-10T14:28:34.923Z,11.60
2018-07-10T14:31:03.870Z,10.97
2018-07-10T14:33:32.770Z,12.77
2018-07-10T14:36:01.701Z,12.23
2018-07-10T14:38:31.259Z,12.43
2018-07-10T14:41:05.025Z,13.10
2018-07-10T14:43:35.478Z,13.73
2018-07-10T14:46:08.874Z,14.37
2018-07-10T14:48:43.203Z,15.33
2018-07-10T14:51:12.288Z,15.80
2018-07-10T14:53:41.545Z,16.87
2018-07-10T14:56:10.530Z,17.20
2018-07-10T14:58:39.462Z,17.37
2018-07-10T15:01:08.979Z,18.40
2018-07-10T15:03:37.818Z,19.47
2018-07-10T15:06:06.762Z,20.50
2018-07-10T15:08:35.763Z,23.50
2018-07-10T15:11:04.651Z,24.57
2018-07-10T15:14:06.521Z,24.03
2018-07-10T15:16:40.660Z,24.27
2018-07-10T15:19:09.880Z,22.87
2018-07-10T15:21:39.376Z,23.23
2018-07-10T15:24:09.490Z,24.47
2018-07-10T15:26:38.420Z,25.00
2018-07-10T15:29:07.331Z,25.53
2018-07-10T15:31:36.553Z,27.13
2018-07-10T15:34:05.369Z,28.33
2018-07-10T15:36:34.261Z,27.00
2018-07-10T15:39:05.197Z,28.37
2018-07-10T15:41:34.309Z,29.03
2018-07-10T15:44:03.473Z,32.30
2018-07-10T15:46:32.693Z,29.23
2018-07-10T15:49:01.603Z,29.47
2018-07-10T15:51:30.736Z,29.73
2018-07-10T15:53:59.973Z,30.03
2018-07-10T15:56:29.162Z,30.40
2018-07-10T15:58:58.894Z,30.33
2018-07-10T16:01:28.115Z,34.07
2018-07-10T16:03:57.141Z,30.90
2018-07-10T16:06:26.383Z,33.80
2018-07-10T16:09:00.782Z,27.60
2018-07-10T16:11:30.212Z,31.77
2018-07-10T16:14:00.418Z,28.37
2018-07-10T16:16:29.362Z,28.13
2018-07-10T16:19:03.226Z,27.40
2018-07-10T16:22:05.827Z,25.37
2018-07-10T16:24:43.947Z,24.67
2018-07-10T16:27:12.830Z,24.23
2018-07-10T16:29:41.741Z,23.93
2018-07-10T16:32:10.670Z,24.00
2018-07-10T16:34:39.574Z,23.13
2018-07-10T16:37:08.416Z,24.60
2018-07-10T16:39:37.357Z,24.83
2018-07-10T16:42:11.738Z,23.87
2018-07-10T16:44:42.654Z,24.40
2018-07-10T16:47:23.462Z,25.70
2018-07-10T16:49:52.398Z,24.07
2018-07-10T16:52:32.999Z,23.20
2018-07-10T16:55:01.914Z,22.13
2018-07-10T16:57:30.831Z,21.83
2018-07-10T17:00:00.101Z,22.67
2018-07-10T17:02:29.240Z,22.47
2018-07-10T17:04:58.988Z,21.40
2018-07-10T17:07:28.670Z,22.40
2018-07-10T17:09:58.086Z,22.77
2018-07-10T17:12:28.243Z,24.10
2018-07-10T17:14:58.297Z,23.43
2018-07-10T17:17:27.979Z,23.73
2018-07-10T17:19:57.182Z,27.40
2018-07-10T17:22:30.286Z,23.70
2018-07-10T17:24:59.422Z,25.13
2018-07-10T17:27:35.495Z,25.13
2018-07-10T17:30:06.460Z,27.53
2018-07-10T17:32:36.995Z,26.53
2018-07-10T17:35:09.768Z,25.93
2018-07-10T17:37:46.079Z,26.10
2018-07-10T17:40:21.484Z,25.30
2018-07-10T17:42:51.944Z,26.67
2018-07-10T17:45:24.317Z,28.87
2018-07-10T17:47:53.245Z,27.57
2018-07-10T17:50:22.229Z,28.70
2018-07-10T17:52:51.491Z,29.33
2018-07-10T17:55:24.333Z,30.57
2018-07-10T17:58:02.637Z,28.67
2018-07-10T18:00:31.651Z,29.97
2018-07-10T18:03:00.591Z,31.10
2018-07-10T18:05:29.391Z,29.40
2018-07-10T18:07:58.350Z,30.83
2018-07-10T18:10:27.633Z,33.03
2018-07-10T18:12:56.854Z,29.13
2018-07-10T18:15:25.941Z,30.90
2018-07-10T18:17:55.064Z,32.93
2018-07-10T18:20:23.986Z,30.97
2018-07-10T18:22:52.910Z,28.70
2018-07-10T18:25:22.060Z,33.43
2018-07-10T18:27:50.946Z,31.90
2018-07-10T18:30:20.233Z,29.63
2018-07-10T18:32:49.258Z,32.97
2018-07-10T18:35:18.313Z,30.13
2018-07-10T18:37:47.222Z,39.40
2018-07-10T18:40:16.873Z,36.43
2018-07-10T18:42:45.980Z,31.30
2018-07-10T18:45:14.915Z,32.53
2018-07-10T18:47:44.149Z,31.93
2018-07-10T18:50:13.299Z,34.37
2018-07-10T18:52:42.191Z,36.57
2018-07-10T18:55:11.088Z,33.97
2018-07-10T18:58:16.567Z,37.03
2018-07-10T19:01:26.282Z,35.33
2018-07-10T19:03:55.233Z,36.37
2018-07-10T19:06:24.753Z,38.57
2018-07-10T19:08:53.684Z,40.43
2018-07-10T19:11:26.481Z,30.63
2018-07-10T19:13:58.225Z,27.87
2018-07-10T19:16:27.123Z,30.33
2018-07-10T19:19:01.261Z,33.47
2018-07-10T19:21:31.414Z,31.57
2018-07-10T19:24:03.514Z,28.27
2018-07-10T19:26:32.510Z,30.73
2018-07-10T19:29:23.081Z,28.27
2018-07-10T19:31:52.568Z,26.17
2018-07-10T19:34:21.446Z,25.23
2018-07-10T19:36:50.384Z,26.70
2018-07-10T19:39:19.762Z,23.80
2018-07-10T19:41:48.759Z,23.17
2018-07-10T19:44:17.752Z,23.50
2018-07-10T19:46:46.648Z,21.17
2018-07-10T19:49:17.516Z,19.90
2018-07-10T19:51:49.440Z,23.87
2018-07-10T19:54:18.494Z,20.10
2018-07-10T19:56:47.786Z,21.67
2018-07-10T19:59:18.223Z,22.07
2018-07-10T20:01:53.734Z,20.40
2018-07-10T20:04:30.613Z,21.13
2018-07-10T20:07:08.197Z,19.43
2018-07-10T20:09:46.069Z,20.97
2018-07-10T20:12:15.681Z,18.77
2018-07-10T20:14:54.536Z,17.87
2018-07-10T20:17:25.927Z,20.97
2018-07-10T20:20:06.979Z,19.70
2018-07-10T20:25:04.577Z,19.53
2018-07-10T20:27:43.415Z,18.40
2018-07-10T20:30:21.489Z,18.67
2018-07-10T20:33:58.316Z,18.93
2018-07-10T20:36:27.385Z,17.87
2018-07-10T20:38:58.609Z,18.43
2018-07-10T20:41:35.495Z,17.73
2018-07-10T20:44:07.113Z,16.57
2018-07-10T20:46:45.520Z,16.53
2018-07-10T20:49:17.598Z,15.87
2018-07-10T20:52:05.008Z,17.73
2018-07-10T20:54:51.852Z,18.20
2018-07-10T20:57:41.121Z,17.73
2018-07-10T21:00:17.224Z,19.67
2018-07-10T21:16:47.146Z,19.47
2018-07-10T21:19:27.457Z,15.10
2018-07-10T21:23:05.562Z,14.80
2018-07-10T21:25:52.703Z,15.17
2018-07-10T21:28:34.143Z,14.03
2018-07-10T21:31:29.458Z,15.87
2018-07-10T21:34:08.329Z,15.43
2018-07-10T21:36:54.505Z,16.60
2018-07-10T21:41:34.694Z,17.20
2018-07-10T21:45:21.846Z,13.97
2018-07-10T21:48:04.050Z,17.70
2018-07-10T21:50:40.825Z,16.00
2018-07-10T21:53:10.463Z,17.27
2018-07-10T21:55:39.320Z,14.87
2018-07-10T21:58:08.264Z,16.50
2018-07-10T22:00:47.689Z,16.63
2018-07-10T22:03:16.576Z,15.43
2018-07-10T22:05:45.448Z,16.07
2018-07-10T22:08:14.360Z,14.67
2018-07-10T22:10:43.233Z,14.33
2018-07-10T22:13:12.161Z,15.50
2018-07-10T22:15:41.568Z,13.57
2018-07-10T22:18:10.612Z,13.07
2018-07-10T22:20:39.586Z,13.13
2018-07-10T22:23:08.527Z,12.50
2018-07-10T22:25:37.444Z,12.03
2018-07-10T22:28:06.300Z,16.57
2018-07-10T22:30:40.536Z,14.13
2018-07-10T22:33:09.437Z,13.20
2018-07-10T22:35:38.379Z,11.93
2018-07-10T22:38:07.351Z,12.97
2018-07-10T22:40:36.253Z,15.17
2018-07-10T22:43:05.133Z,12.73
2018-07-10T22:45:34.041Z,19.63
2018-07-10T22:48:03.006Z,19.97
2018-07-10T22:50:31.931Z,18.37
2018-07-10T22:53:01.776Z,18.93
2018-07-10T22:55:32.643Z,17.13
2018-07-10T22:58:09.662Z,14.07
2018-07-10T23:00:39.676Z,15.73
2018-07-10T23:03:16.750Z,14.17
2018-07-10T23:05:46.869Z,15.57
2018-07-10T23:08:17.130Z,13.83
2018-07-10T23:10:46.906Z,14.30
2018-07-10T23:13:16.687Z,15.80
2018-07-10T23:15:46.183Z,17.07
2018-07-10T23:18:15.535Z,20.43
2018-07-10T23:20:44.380Z,15.23
2018-07-10T23:23:13.273Z,21.93
2018-07-10T23:25:42.205Z,17.77
2018-07-10T23:28:11.063Z,18.80
2018-07-10T23:30:41.401Z,23.90
2018-07-10T23:33:12.708Z,26.37
2018-07-10T23:35:42.712Z,26.67
2018-07-10T23:39:25.670Z,29.93
2018-07-10T23:42:04.189Z,29.10
2018-07-10T23:44:38.182Z,22.77
2018-07-10T23:47:27.322Z,25.20
2018-07-10T23:50:19.106Z,22.77
2018-07-10T23:53:53.303Z,23.13
2018-07-10T23:56:22.498Z,25.63
2018-07-10T23:58:51.686Z,25.90
